createdAt,value
2018-12-02T00:00:41.768Z,76.95
2018-12-02T00:03:10.072Z,77.20
2018-12-02T00:05:39.156Z,77.82
2018-12-02T00:08:07.747Z,77.33
2018-12-02T00:10:36.510Z,77.34
2018-12-02T00:13:04.784Z,77.52
2018-12-02T00:15:33.304Z,77.44
2018-12-02T00:18:01.953Z,77.92
2018-12-02T00:20:30.274Z,77.71
2018-12-02T00:22:58.530Z,77.68
2018-12-02T00:25:26.807Z,77.97
2018-12-02T00:27:59.379Z,78.04
2018-12-02T00:30:29.639Z,77.97
2018-12-02T00:32:58.032Z,77.98
2018-12-02T00:35:26.242Z,78.62
2018-12-02T00:37:58.721Z,78.53
2018-12-02T00:40:26.955Z,78.25
2018-12-02T00:42:58.183Z,78.51
2018-12-02T00:45:27.487Z,78.60
2018-12-02T00:47:55.752Z,78.48
2018-12-02T00:50:23.984Z,78.75
2018-12-02T00:52:54.347Z,78.81
2018-12-02T00:55:25.677Z,78.73
2018-12-02T00:57:53.876Z,78.65
2018-12-02T01:00:22.119Z,78.87
2018-12-02T01:02:51.061Z,78.37
2018-12-02T01:05:20.368Z,78.45
2018-12-02T01:07:48.683Z,78.27
2018-12-02T01:10:19.514Z,78.68
2018-12-02T01:12:48.633Z,78.25
2018-12-02T01:15:19.083Z,78.09
2018-12-02T01:17:47.350Z,78.22
2018-12-02T01:20:16.573Z,78.32
2018-12-02T01:22:44.821Z,78.44
2018-12-02T01:25:13.842Z,78.35
2018-12-02T01:27:42.590Z,77.94
2018-12-02T01:30:13.857Z,78.20
2018-12-02T01:32:42.041Z,78.49
2018-12-02T01:35:10.915Z,78.53
2018-12-02T01:37:39.122Z,78.39
2018-12-02T01:40:16.174Z,77.78
2018-12-02T01:42:44.405Z,78.29
2018-12-02T01:45:20.745Z,78.15
2018-12-02T01:47:49.013Z,77.62
2018-12-02T01:50:19.186Z,78.07
2018-12-02T01:52:48.444Z,77.75
2018-12-02T01:55:16.671Z,78.10
2018-12-02T01:57:44.989Z,77.71
2018-12-02T02:00:16.313Z,77.76
2018-12-02T02:02:44.740Z,78.50
2018-12-02T02:05:13.214Z,78.26
2018-12-02T02:07:41.439Z,78.53
2018-12-02T02:10:17.987Z,78.30
2018-12-02T02:12:46.188Z,78.15
2018-12-02T02:15:15.492Z,78.59
2018-12-02T02:17:43.854Z,78.72
2018-12-02T02:20:15.207Z,79.00
2018-12-02T02:22:43.702Z,79.51
2018-12-02T02:25:13.011Z,79.36
2018-12-02T02:27:42.317Z,79.34
2018-12-02T02:30:13.985Z,79.92
2018-12-02T02:32:42.221Z,79.98
2018-12-02T02:35:10.883Z,80.10
2018-12-02T02:37:39.232Z,80.08
2018-12-02T02:40:17.966Z,79.76
2018-12-02T02:42:46.393Z,80.21
2018-12-02T02:45:15.084Z,79.90
2018-12-02T02:47:43.363Z,80.26
2018-12-02T02:50:14.750Z,80.11
2018-12-02T02:52:45.142Z,80.50
2018-12-02T02:55:13.374Z,80.57
2018-12-02T02:57:41.640Z,80.23
2018-12-02T03:00:13.999Z,80.12
2018-12-02T03:02:42.210Z,80.34
2018-12-02T03:05:11.372Z,80.32
2018-12-02T03:07:39.609Z,79.47
2018-12-02T03:10:10.347Z,78.90
2018-12-02T03:12:38.566Z,79.15
2018-12-02T03:15:09.601Z,79.33
2018-12-02T03:17:37.851Z,79.61
2018-12-02T03:20:08.513Z,79.45
2018-12-02T03:22:36.749Z,78.99
2018-12-02T03:25:06.713Z,78.78
2018-12-02T03:27:34.902Z,78.30
2018-12-02T03:30:04.084Z,78.14
2018-12-02T03:32:32.299Z,78.33
2018-12-02T03:35:00.556Z,77.99
2018-12-02T03:37:28.778Z,78.15
2018-12-02T03:39:56.987Z,78.02
2018-12-02T03:42:25.257Z,77.49
2018-12-02T03:44:53.489Z,77.90
2018-12-02T03:47:21.712Z,77.36
2018-12-02T03:49:50.014Z,76.89
2018-12-02T03:52:18.249Z,76.83
2018-12-02T03:54:46.487Z,77.00
2018-12-02T03:57:14.694Z,76.49
2018-12-02T03:59:42.994Z,76.16
2018-12-02T04:02:11.286Z,75.79
2018-12-02T04:04:39.506Z,75.95
2018-12-02T04:07:20.425Z,75.42
2018-12-02T04:09:48.649Z,75.54
2018-12-02T04:12:16.891Z,75.15
2018-12-02T04:14:45.089Z,75.28
2018-12-02T04:17:13.293Z,75.14
2018-12-02T04:19:41.520Z,75.03
2018-12-02T04:22:09.737Z,74.82
2018-12-02T04:24:37.971Z,74.79
2018-12-02T04:27:06.289Z,74.87
2018-12-02T04:29:34.505Z,75.06
2018-12-02T04:32:02.745Z,75.35
2018-12-02T04:34:30.957Z,75.17
2018-12-02T04:36:59.166Z,74.83
2018-12-02T04:39:27.460Z,74.47
2018-12-02T04:41:55.674Z,73.96
2018-12-02T04:44:23.893Z,74.52
2018-12-02T04:46:52.105Z,74.08
2018-12-02T04:49:20.314Z,74.21
2018-12-02T04:51:48.596Z,74.23
2018-12-02T04:54:16.840Z,73.98
2018-12-02T04:56:45.058Z,74.05
2018-12-02T04:59:13.296Z,73.82
2018-12-02T05:01:41.518Z,74.56
2018-12-02T05:04:09.781Z,73.98
2018-12-02T05:06:38.047Z,73.94
2018-12-02T05:09:07.263Z,74.26
2018-12-02T05:11:35.600Z,73.97
2018-12-02T05:14:03.976Z,74.04
2018-12-02T05:16:32.216Z,74.01
2018-12-02T05:19:00.484Z,73.90
2018-12-02T05:21:28.738Z,73.57
2018-12-02T05:23:56.963Z,73.04
2018-12-02T05:26:25.199Z,73.28
2018-12-02T05:28:53.386Z,73.33
2018-12-02T05:31:21.591Z,73.69
2018-12-02T05:33:49.893Z,74.12
2018-12-02T05:36:18.094Z,74.52
2018-12-02T05:38:46.377Z,74.71
2018-12-02T05:41:14.650Z,75.15
2018-12-02T05:43:43.069Z,74.92
2018-12-02T05:46:11.310Z,75.15
2018-12-02T05:48:39.582Z,75.47
2018-12-02T05:51:07.835Z,75.40
2018-12-02T05:53:36.051Z,75.10
2018-12-02T05:56:04.369Z,75.45
2018-12-02T05:58:32.589Z,75.15
2018-12-02T06:01:00.874Z,75.52
2018-12-02T06:03:29.143Z,75.93
2018-12-02T06:05:57.391Z,75.97
2018-12-02T06:08:25.631Z,76.25
2018-12-02T06:10:53.826Z,76.29
2018-12-02T06:13:22.081Z,77.04
2018-12-02T06:15:50.299Z,76.71
2018-12-02T06:18:18.561Z,76.60
2018-12-02T06:20:46.745Z,76.52
2018-12-02T06:23:14.957Z,76.59
2018-12-02T06:25:46.448Z,76.48
2018-12-02T06:28:11.523Z,76.30
2018-12-02T06:30:39.834Z,76.30
2018-12-02T06:33:08.077Z,76.19
2018-12-02T06:35:36.330Z,76.11
2018-12-02T06:38:05.333Z,76.05
2018-12-02T06:40:33.549Z,76.31
2018-12-02T06:43:01.765Z,76.56
2018-12-02T06:45:30.106Z,76.15
2018-12-02T06:47:58.315Z,76.33
2018-12-02T06:50:27.585Z,76.62
2018-12-02T06:52:56.728Z,76.87
2018-12-02T06:55:59.209Z,77.16
2018-12-02T06:58:38.452Z,77.90
2018-12-02T07:01:16.302Z,78.40
2018-12-02T07:03:49.744Z,78.50
2018-12-02T07:06:18.402Z,79.04
2018-12-02T07:08:46.632Z,79.12
2018-12-02T07:11:14.814Z,79.41
2018-12-02T07:13:43.045Z,79.41
2018-12-02T07:16:11.344Z,80.15
2018-12-02T07:18:42.085Z,79.75
2018-12-02T07:21:15.355Z,79.70
2018-12-02T07:23:47.257Z,80.14
2018-12-02T07:26:17.403Z,80.33
2018-12-02T07:28:45.612Z,80.63
2018-12-02T07:31:13.900Z,80.65
2018-12-02T07:33:42.142Z,80.62
2018-12-02T07:36:10.469Z,80.58
2018-12-02T07:38:41.660Z,80.48
2018-12-02T07:41:10.472Z,80.27
2018-12-02T07:43:38.736Z,80.31
2018-12-02T07:46:07.057Z,80.37
2018-12-02T07:48:35.306Z,81.02
2018-12-02T07:51:03.580Z,80.76
2018-12-02T07:53:31.777Z,80.87
2018-12-02T07:58:52.809Z,81.00
2018-12-02T08:01:21.045Z,80.76
2018-12-02T08:03:49.334Z,81.37
2018-12-02T08:06:17.516Z,81.03
2018-12-02T08:08:45.817Z,81.40
2018-12-02T08:11:14.049Z,81.38
2018-12-02T08:14:01.026Z,81.63
2018-12-02T08:16:29.270Z,81.47
2018-12-02T08:18:57.466Z,81.91
2018-12-02T08:21:25.689Z,81.38
2018-12-02T08:23:53.944Z,81.59
2018-12-02T08:26:22.188Z,81.37
2018-12-02T08:28:50.470Z,81.50
2018-12-02T08:31:18.693Z,81.73
2018-12-02T08:33:46.918Z,81.88
2018-12-02T08:36:15.143Z,81.73
2018-12-02T08:38:43.387Z,81.75
2018-12-02T08:41:11.636Z,81.98
2018-12-02T08:43:39.877Z,81.45
2018-12-02T08:46:08.162Z,81.80
2018-12-02T08:48:36.387Z,81.83
2018-12-02T08:51:04.624Z,81.55
2018-12-02T08:53:32.826Z,81.68
2018-12-02T08:56:01.089Z,81.80
2018-12-02T08:58:29.418Z,82.06
2018-12-02T09:03:51.235Z,81.81
2018-12-02T09:06:19.479Z,81.70
2018-12-02T09:08:47.708Z,81.89
2018-12-02T09:11:15.962Z,81.61
2018-12-02T09:13:44.239Z,81.74
2018-12-02T09:16:12.538Z,81.47
2018-12-02T09:18:40.797Z,81.26
2018-12-02T09:21:09.005Z,81.21
2018-12-02T09:23:37.273Z,81.45
2018-12-02T09:26:05.934Z,81.61
2018-12-02T09:28:34.230Z,81.62
2018-12-02T09:31:02.597Z,81.75
2018-12-02T09:33:30.835Z,81.90
2018-12-02T09:35:59.089Z,81.56
2018-12-02T09:38:27.318Z,81.52
2018-12-02T09:40:55.559Z,81.91
2018-12-02T09:43:23.900Z,81.96
2018-12-02T09:45:52.235Z,81.93
2018-12-02T09:48:20.507Z,81.87
2018-12-02T09:50:48.892Z,81.63
2018-12-02T09:53:17.146Z,81.89
2018-12-02T09:55:47.053Z,81.92
2018-12-02T09:58:22.176Z,81.83
2018-12-02T10:00:50.414Z,82.42
2018-12-02T10:03:18.655Z,81.92
2018-12-02T10:05:46.925Z,82.26
2018-12-02T10:08:15.145Z,82.13
2018-12-02T10:10:43.740Z,82.16
2018-12-02T10:13:13.914Z,82.18
2018-12-02T10:15:43.221Z,82.23
2018-12-02T10:18:11.502Z,82.36
2018-12-02T10:20:39.771Z,82.26
2018-12-02T10:23:08.429Z,82.35
2018-12-02T10:25:36.723Z,82.32
2018-12-02T10:28:05.318Z,82.62
2018-12-02T10:30:41.035Z,82.39
2018-12-02T10:33:09.569Z,82.48
2018-12-02T10:35:37.795Z,82.38
2018-12-02T10:38:07.337Z,82.16
2018-12-02T10:40:35.905Z,82.51
2018-12-02T10:43:04.127Z,82.49
2018-12-02T10:45:32.365Z,82.80
2018-12-02T10:48:01.342Z,82.76
2018-12-02T10:50:34.878Z,82.25
2018-12-02T10:53:16.967Z,82.81
2018-12-02T10:55:46.473Z,82.77
2018-12-02T10:58:16.270Z,82.78
2018-12-02T11:00:50.061Z,82.87
2018-12-02T11:03:18.334Z,82.49
2018-12-02T11:05:46.577Z,82.67
2018-12-02T11:08:14.792Z,83.15
2018-12-02T11:10:42.990Z,83.12
2018-12-02T11:13:11.222Z,83.05
2018-12-02T11:15:39.780Z,82.67
2018-12-02T11:18:09.843Z,82.99
2018-12-02T11:20:38.068Z,82.87
2018-12-02T11:23:07.011Z,83.04
2018-12-02T11:25:35.567Z,83.10
2018-12-02T11:28:03.829Z,83.37
2018-12-02T11:30:32.047Z,83.33
2018-12-02T11:33:00.277Z,83.31
2018-12-02T11:35:28.459Z,83.39
2018-12-02T11:37:56.689Z,83.44
2018-12-02T11:40:24.978Z,83.49
2018-12-02T11:42:53.957Z,83.38
2018-12-02T11:45:22.175Z,83.09
2018-12-02T11:47:52.546Z,83.58
2018-12-02T11:50:24.143Z,83.64
2018-12-02T11:52:52.335Z,83.36
2018-12-02T11:55:21.477Z,83.77
2018-12-02T11:57:49.813Z,83.70
2018-12-02T12:00:23.082Z,83.61
2018-12-02T12:02:51.404Z,83.85
2018-12-02T12:05:19.674Z,83.86
2018-12-02T12:07:48.802Z,83.78
2018-12-02T12:10:18.116Z,83.61
2018-12-02T12:12:47.385Z,83.43
2018-12-02T12:15:19.506Z,83.70
2018-12-02T12:17:47.748Z,84.07
2018-12-02T12:20:20.431Z,83.53
2018-12-02T12:22:48.718Z,83.84
2018-12-02T12:25:17.009Z,84.24
2018-12-02T12:27:45.276Z,84.37
2018-12-02T12:30:17.889Z,84.20
2018-12-02T12:32:46.097Z,84.26
2018-12-02T12:35:15.703Z,84.33
2018-12-02T12:37:43.949Z,84.53
2018-12-02T12:40:13.477Z,84.32
2018-12-02T12:42:42.755Z,84.20
2018-12-02T12:45:12.433Z,84.13
2018-12-02T12:47:41.323Z,84.35
2018-12-02T12:50:15.576Z,84.00
2018-12-02T12:52:43.805Z,84.40
2018-12-02T12:55:13.947Z,84.06
2018-12-02T12:57:42.285Z,84.24
2018-12-02T13:00:19.290Z,83.89
2018-12-02T13:02:47.699Z,84.11
2018-12-02T13:05:19.125Z,83.92
2018-12-02T13:07:48.190Z,84.50
2018-12-02T13:10:16.714Z,84.37
2018-12-02T13:12:44.957Z,84.05
2018-12-02T13:15:15.233Z,83.89
2018-12-02T13:17:45.971Z,84.20
2018-12-02T13:20:17.515Z,84.53
2018-12-02T13:22:45.774Z,84.39
2018-12-02T13:25:14.964Z,84.61
2018-12-02T13:27:44.155Z,84.32
2018-12-02T13:30:14.554Z,84.13
2018-12-02T13:32:43.151Z,84.09
2018-12-02T13:40:56.242Z,84.35
2018-12-02T13:43:25.161Z,84.65
2018-12-02T13:45:53.429Z,84.17
2018-12-02T13:48:21.823Z,84.05
2018-12-02T13:50:50.203Z,84.29
2018-12-02T13:53:18.429Z,84.19
2018-12-02T13:55:46.848Z,84.48
2018-12-02T13:58:15.427Z,84.32
2018-12-02T14:00:43.816Z,84.67
2018-12-02T14:03:13.283Z,84.37
2018-12-02T14:05:46.855Z,84.39
2018-12-02T14:08:15.160Z,84.61
2018-12-02T14:10:43.972Z,84.76
2018-12-02T14:13:14.787Z,84.74
2018-12-02T14:15:51.999Z,84.60
2018-12-02T14:18:31.163Z,84.99
2018-12-02T14:20:59.478Z,84.78
2018-12-02T14:23:28.160Z,84.88
2018-12-02T14:25:58.556Z,84.97
2018-12-02T14:28:29.740Z,84.36
2018-12-02T14:30:57.953Z,84.88
2018-12-02T14:33:26.163Z,84.83
2018-12-02T14:35:54.410Z,84.80
2018-12-02T14:38:22.658Z,84.61
2018-12-02T14:40:50.964Z,85.03
2018-12-02T14:43:19.242Z,84.42
2018-12-02T14:45:47.454Z,84.76
2018-12-02T14:48:15.766Z,84.94
2018-12-02T14:50:44.010Z,84.99
2018-12-02T14:53:12.247Z,85.02
2018-12-02T14:55:40.490Z,84.96
2018-12-02T14:58:08.837Z,84.92
2018-12-02T15:00:37.062Z,84.74
2018-12-02T15:03:05.608Z,84.96
2018-12-02T15:05:33.861Z,85.06
2018-12-02T15:08:02.140Z,85.29
2018-12-02T15:10:30.430Z,85.28
2018-12-02T15:12:58.783Z,85.23
2018-12-02T15:15:27.266Z,85.17
2018-12-02T15:17:55.618Z,84.87
2018-12-02T15:20:23.965Z,85.27
2018-12-02T15:22:52.237Z,84.90
2018-12-02T15:25:20.474Z,84.71
2018-12-02T15:27:48.715Z,84.49
2018-12-02T15:30:18.546Z,84.40
2018-12-02T15:32:48.985Z,84.52
2018-12-02T15:35:17.227Z,85.08
2018-12-02T15:37:45.448Z,84.86
2018-12-02T15:43:06.911Z,84.92
2018-12-02T15:48:27.645Z,85.09
2018-12-02T15:50:55.894Z,85.19
2018-12-02T15:53:24.132Z,84.82
2018-12-02T15:55:52.365Z,84.98
2018-12-02T15:58:20.875Z,84.89
2018-12-02T16:00:49.198Z,84.70
2018-12-02T16:03:17.443Z,84.97
2018-12-02T16:05:45.710Z,84.94
2018-12-02T16:08:13.954Z,84.98
2018-12-02T16:10:42.199Z,84.77
2018-12-02T16:13:11.542Z,84.81
2018-12-02T16:15:39.803Z,84.61
2018-12-02T16:18:10.608Z,84.78
2018-12-02T16:20:53.841Z,84.40
2018-12-02T16:23:23.328Z,84.52
2018-12-02T16:25:51.552Z,84.43
2018-12-02T16:28:19.889Z,84.55
2018-12-02T16:30:49.527Z,84.67
2018-12-02T16:33:17.772Z,84.66
2018-12-02T16:35:45.994Z,84.48
2018-12-02T16:38:14.249Z,84.84
2018-12-02T16:40:42.550Z,84.99
2018-12-02T16:43:11.005Z,84.90
2018-12-02T16:45:39.432Z,84.88
2018-12-02T16:48:09.220Z,84.86
2018-12-02T16:50:42.956Z,84.49
2018-12-02T16:53:15.760Z,85.09
2018-12-02T16:56:17.260Z,84.94
2018-12-02T16:58:59.167Z,84.77
2018-12-02T17:01:28.606Z,84.52
2018-12-02T17:03:58.507Z,84.00
2018-12-02T17:06:26.906Z,84.13
2018-12-02T17:08:56.290Z,83.75
2018-12-02T17:11:24.596Z,83.77
2018-12-02T17:13:52.871Z,83.98
2018-12-02T17:16:21.200Z,84.14
2018-12-02T17:18:49.447Z,84.28
2018-12-02T17:21:17.701Z,84.25
2018-12-02T17:23:46.059Z,84.10
2018-12-02T17:26:14.186Z,84.21
2018-12-02T17:28:42.427Z,84.21
2018-12-02T17:31:14.489Z,84.95
2018-12-02T17:33:42.767Z,84.59
2018-12-02T17:36:18.139Z,84.36
2018-12-02T17:38:47.464Z,84.79
2018-12-02T17:41:16.190Z,84.44
2018-12-02T17:43:44.404Z,84.90
2018-12-02T17:46:12.636Z,84.67
2018-12-02T17:48:40.904Z,84.65
2018-12-02T17:51:24.303Z,84.94
2018-12-02T17:57:24.533Z,84.79
2018-12-02T18:00:06.668Z,84.63
2018-12-02T18:02:59.804Z,84.77
2018-12-02T18:05:35.956Z,84.44
2018-12-02T18:08:22.648Z,84.30
2018-12-02T18:14:02.175Z,83.72
2018-12-02T18:16:30.493Z,83.86
2018-12-02T18:18:58.730Z,83.94
2018-12-02T18:21:26.993Z,83.69
2018-12-02T18:23:55.270Z,84.13
2018-12-02T18:26:23.563Z,84.04
2018-12-02T18:28:51.899Z,84.04
2018-12-02T18:31:20.178Z,84.23
2018-12-02T18:33:48.428Z,84.07
2018-12-02T18:36:18.870Z,84.10
2018-12-02T18:38:48.254Z,84.30
2018-12-02T18:41:20.458Z,84.26
2018-12-02T18:43:48.738Z,84.49
2018-12-02T18:46:17.680Z,84.42
2018-12-02T18:48:45.934Z,84.00
2018-12-02T18:51:14.356Z,84.21
2018-12-02T18:53:43.028Z,84.38
2018-12-02T18:56:16.390Z,84.35
2018-12-02T18:58:39.907Z,84.50
2018-12-02T19:01:08.208Z,84.58
2018-12-02T19:03:36.456Z,84.70
2018-12-02T19:06:04.709Z,84.49
2018-12-02T19:08:32.958Z,84.76
2018-12-02T19:11:01.434Z,84.46
2018-12-02T19:13:29.711Z,84.50
2018-12-02T19:15:58.001Z,84.75
2018-12-02T19:18:26.502Z,84.62
2018-12-02T19:20:56.891Z,84.40
2018-12-02T19:23:28.407Z,84.56
2018-12-02T19:25:56.730Z,84.73
2018-12-02T19:28:25.122Z,84.50
2018-12-02T19:30:53.461Z,84.58
2018-12-02T19:33:23.288Z,84.53
2018-12-02T19:35:53.875Z,84.89
2018-12-02T19:38:23.520Z,84.83
2018-12-02T19:40:51.960Z,84.81
2018-12-02T19:43:20.304Z,85.29
2018-12-02T19:45:50.838Z,85.17
2018-12-02T19:48:19.166Z,85.30
2018-12-02T19:50:47.809Z,85.31
2018-12-02T19:53:16.158Z,85.08
2018-12-02T19:55:44.467Z,85.63
2018-12-02T19:58:13.714Z,85.01
2018-12-02T20:00:43.454Z,85.36
2018-12-02T20:03:13.064Z,85.15
2018-12-02T20:05:41.782Z,85.05
2018-12-02T20:08:12.220Z,85.36
2018-12-02T20:10:41.891Z,84.98
2018-12-02T20:13:11.486Z,84.90
2018-12-02T20:15:44.979Z,84.43
2018-12-02T20:18:13.359Z,84.52
2018-12-02T20:20:48.807Z,84.42
2018-12-02T20:23:23.173Z,84.11
2018-12-02T20:25:52.518Z,84.43
2018-12-02T20:28:21.666Z,84.07
2018-12-02T20:30:50.058Z,83.63
2018-12-02T20:33:18.413Z,82.86
2018-12-02T20:35:46.757Z,83.13
2018-12-02T20:38:15.164Z,82.84
2018-12-02T20:40:43.566Z,82.98
2018-12-02T20:43:11.952Z,82.36
2018-12-02T20:45:40.309Z,82.84
2018-12-02T20:48:08.656Z,82.73
2018-12-02T20:50:37.017Z,82.60
2018-12-02T20:53:05.677Z,82.44
2018-12-02T20:55:34.141Z,82.75
2018-12-02T20:58:03.210Z,82.96
2018-12-02T21:00:31.514Z,82.28
2018-12-02T21:03:13.816Z,82.41
2018-12-02T21:05:45.550Z,82.84
2018-12-02T21:08:13.982Z,82.08
2018-12-02T21:10:42.341Z,82.67
2018-12-02T21:13:10.603Z,82.24
2018-12-02T21:15:39.012Z,82.26
2018-12-02T21:18:07.289Z,81.92
2018-12-02T21:20:35.649Z,81.98
2018-12-02T21:23:04.054Z,82.01
2018-12-02T21:25:32.312Z,82.25
2018-12-02T21:28:00.805Z,82.09
2018-12-02T21:30:29.876Z,82.35
2018-12-02T21:32:58.443Z,82.32
2018-12-02T21:35:27.070Z,82.38
2018-12-02T21:37:56.758Z,82.52
2018-12-02T21:40:25.335Z,82.33
2018-12-02T21:42:53.654Z,82.19
2018-12-02T21:45:22.019Z,82.33
2018-12-02T21:47:54.737Z,82.13
2018-12-02T21:50:26.367Z,81.80
2018-12-02T21:52:55.096Z,82.20
2018-12-02T21:55:23.388Z,81.89
2018-12-02T21:57:51.738Z,81.89
2018-12-02T22:00:25.265Z,81.92
2018-12-02T22:02:54.003Z,82.11
2018-12-02T22:05:22.262Z,82.10
2018-12-02T22:07:51.310Z,81.61
2018-12-02T22:10:22.201Z,81.59
2018-12-02T22:12:50.500Z,81.63
2018-12-02T22:15:18.799Z,81.25
2018-12-02T22:17:47.149Z,81.43
2018-12-02T22:20:16.503Z,81.08
2018-12-02T22:22:44.751Z,81.09
2018-12-02T22:25:15.983Z,80.99
2018-12-02T22:27:45.542Z,81.09
2018-12-02T22:30:16.828Z,81.04
2018-12-02T22:32:46.138Z,81.29
2018-12-02T22:35:15.408Z,81.43
2018-12-02T22:37:44.715Z,81.11
2018-12-02T22:40:18.143Z,81.44
2018-12-02T22:42:46.435Z,81.50
2018-12-02T22:45:15.886Z,81.25
2018-12-02T22:47:44.360Z,81.64
2018-12-02T22:50:13.932Z,81.43
2018-12-02T22:52:42.516Z,81.50
2018-12-02T22:55:11.565Z,81.07
2018-12-02T22:57:40.015Z,81.42
2018-12-02T23:00:17.432Z,81.47
2018-12-02T23:02:52.506Z,81.67
2018-12-02T23:05:20.994Z,81.33
2018-12-02T23:07:49.343Z,81.35
2018-12-02T23:10:17.603Z,81.73
2018-12-02T23:12:45.923Z,82.01
2018-12-02T23:15:14.188Z,81.68
2018-12-02T23:17:42.398Z,81.58
2018-12-02T23:20:11.937Z,81.62
2018-12-02T23:22:40.292Z,81.22
2018-12-02T23:25:10.850Z,81.17
2018-12-02T23:27:39.149Z,81.23
2018-12-02T23:30:14.754Z,81.27
2018-12-02T23:32:43.007Z,80.25
2018-12-02T23:35:11.291Z,80.49
2018-12-02T23:37:39.594Z,80.41
2018-12-02T23:40:11.414Z,80.26
2018-12-02T23:42:39.805Z,79.84
2018-12-02T23:45:09.417Z,79.14
2018-12-02T23:47:37.778Z,79.39
2018-12-02T23:50:14.806Z,79.36
2018-12-02T23:52:43.045Z,79.20
2018-12-02T23:55:13.082Z,79.34
2018-12-02T23:57:41.330Z,79.32
